Terminal Aerodrome Forecast
Issued by NWS

Home | Current Version | Previous Version | Graphics & Text | Print | Product List | Glossary On
Versions: 1 2 3 4 5 6 7 8 9 10 11 12 13 14 15 16 17
000
FTUS43 KUNR 201047 AAC
TAFGCC
TAF AMD
KGCC 201047Z 2011/2106 34007KT 3SM -SN OVC020
      TEMPO 2011/2012 2SM -SN BKN012
     FM201400 32006KT P6SM OVC040
     FM201900 35007KT 2SM -SN OVC011
     FM210500 29004KT P6SM OVC020=

USA.gov is the U.S. government's official web portal to all federal, state and local government web resources and services.